sensor_id;sensor_type;location;lat;lon;timestamp;temperature;humidity
296;DHT22;132;48.770;9.200;2023-01-16T00:01:29;3.20;1.00
296;DHT22;132;48.770;9.200;2023-01-16T00:08:49;3.50;1.00
296;DHT22;132;48.770;9.200;2023-01-16T00:16:09;3.60;1.00
296;DHT22;132;48.770;9.200;2023-01-16T00:18:36;3.80;1.00
296;DHT22;132;48.770;9.200;2023-01-16T00:21:02;3.70;1.00
296;DHT22;132;48.770;9.200;2023-01-16T00:23:29;4.00;1.00
296;DHT22;132;48.770;9.200;2023-01-16T00:25:55;3.80;1.00
296;DHT22;132;48.770;9.200;2023-01-16T00:28:21;3.50;1.00
296;DHT22;132;48.770;9.200;2023-01-16T00:30:48;3.90;1.00
296;DHT22;132;48.770;9.200;2023-01-16T00:33:14;3.90;1.00
296;DHT22;132;48.770;9.200;2023-01-16T00:35:41;4.60;1.00
296;DHT22;132;48.770;9.200;2023-01-16T00:38:07;3.80;1.00
296;DHT22;132;48.770;9.200;2023-01-16T00:40:33;3.80;1.00
296;DHT22;132;48.770;9.200;2023-01-16T00:43:18;3.80;1.00
296;DHT22;132;48.770;9.200;2023-01-16T00:48:11;3.70;1.00
296;DHT22;132;48.770;9.200;2023-01-16T00:50:39;3.80;1.00
296;DHT22;132;48.770;9.200;2023-01-16T00:53:06;3.70;1.00
296;DHT22;132;48.770;9.200;2023-01-16T00:55:33;3.70;1.00
296;DHT22;132;48.770;9.200;2023-01-16T00:58:00;3.90;1.00
296;DHT22;132;48.770;9.200;2023-01-16T01:00:26;3.60;1.00
296;DHT22;132;48.770;9.200;2023-01-16T01:02:53;4.10;1.00
296;DHT22;132;48.770;9.200;2023-01-16T01:05:19;3.70;1.00
296;DHT22;132;48.770;9.200;2023-01-16T01:07:46;4.00;1.00
296;DHT22;132;48.770;9.200;2023-01-16T01:10:12;3.60;1.00
296;DHT22;132;48.770;9.200;2023-01-16T01:12:39;3.50;1.00
296;DHT22;132;48.770;9.200;2023-01-16T01:17:32;3.50;1.00
296;DHT22;132;48.770;9.200;2023-01-16T01:19:59;4.00;1.00
296;DHT22;132;48.770;9.200;2023-01-16T01:22:25;4.40;1.00
296;DHT22;132;48.770;9.200;2023-01-16T01:24:53;3.50;1.00
296;DHT22;132;48.770;9.200;2023-01-16T01:27:19;3.40;1.00
296;DHT22;132;48.770;9.200;2023-01-16T01:29:46;3.50;1.00
296;DHT22;132;48.770;9.200;2023-01-16T01:32:12;3.40;1.00
296;DHT22;132;48.770;9.200;2023-01-16T01:34:38;3.40;1.00
296;DHT22;132;48.770;9.200;2023-01-16T01:37:06;3.40;1.00
296;DHT22;132;48.770;9.200;2023-01-16T01:39:33;3.30;1.00
296;DHT22;132;48.770;9.200;2023-01-16T01:42:00;3.40;1.00
296;DHT22;132;48.770;9.200;2023-01-16T01:44:53;4.60;1.00
296;DHT22;132;48.770;9.200;2023-01-16T01:47:25;3.40;1.00
296;DHT22;132;48.770;9.200;2023-01-16T01:49:53;3.30;1.00
296;DHT22;132;48.770;9.200;2023-01-16T01:52:22;3.20;1.00
296;DHT22;132;48.770;9.200;2023-01-16T01:54:56;4.30;1.00
296;DHT22;132;48.770;9.200;2023-01-16T01:57:28;3.30;1.00
296;DHT22;132;48.770;9.200;2023-01-16T02:00:06;4.10;1.00
296;DHT22;132;48.770;9.200;2023-01-16T02:02:43;3.10;1.00
296;DHT22;132;48.770;9.200;2023-01-16T02:05:12;3.10;1.00
296;DHT22;132;48.770;9.200;2023-01-16T02:07:42;4.90;1.00
296;DHT22;132;48.770;9.200;2023-01-16T02:12:38;2.90;1.00
296;DHT22;132;48.770;9.200;2023-01-16T02:15:06;3.20;1.00
296;DHT22;132;48.770;9.200;2023-01-16T02:17:32;3.10;1.00
296;DHT22;132;48.770;9.200;2023-01-16T02:20:26;3.10;1.00
296;DHT22;132;48.770;9.200;2023-01-16T02:26:01;3.10;1.00
296;DHT22;132;48.770;9.200;2023-01-16T02:40:18;3.20;1.00
296;DHT22;132;48.770;9.200;2023-01-16T02:43:02;3.30;1.00
296;DHT22;132;48.770;9.200;2023-01-16T02:45:43;3.20;1.00
296;DHT22;132;48.770;9.200;2023-01-16T02:48:28;3.10;1.00
296;DHT22;132;48.770;9.200;2023-01-16T02:51:14;3.20;1.00
296;DHT22;132;48.770;9.200;2023-01-16T02:53:57;3.60;1.00
296;DHT22;132;48.770;9.200;2023-01-16T02:56:37;3.20;1.00
296;DHT22;132;48.770;9.200;2023-01-16T02:59:10;3.20;1.00
296;DHT22;132;48.770;9.200;2023-01-16T03:01:36;3.10;1.00
296;DHT22;132;48.770;9.200;2023-01-16T03:12:52;3.30;1.00
296;DHT22;132;48.770;9.200;2023-01-16T03:23:28;3.10;1.00
296;DHT22;132;48.770;9.200;2023-01-16T03:26:01;3.20;1.00
296;DHT22;132;48.770;9.200;2023-01-16T03:29:10;3.20;1.00
296;DHT22;132;48.770;9.200;2023-01-16T03:32:04;3.40;1.00
296;DHT22;132;48.770;9.200;2023-01-16T03:34:45;3.40;1.00
296;DHT22;132;48.770;9.200;2023-01-16T03:37:22;3.20;1.00
296;DHT22;132;48.770;9.200;2023-01-16T03:39:56;3.30;1.00
296;DHT22;132;48.770;9.200;2023-01-16T03:42:34;3.10;1.00
296;DHT22;132;48.770;9.200;2023-01-16T03:45:10;3.10;1.00
296;DHT22;132;48.770;9.200;2023-01-16T03:47:42;2.80;1.00
296;DHT22;132;48.770;9.200;2023-01-16T03:50:12;3.10;1.00
296;DHT22;132;48.770;9.200;2023-01-16T03:52:47;3.00;1.00
296;DHT22;132;48.770;9.200;2023-01-16T03:55:23;2.90;1.00
296;DHT22;132;48.770;9.200;2023-01-16T03:58:06;2.90;1.00
296;DHT22;132;48.770;9.200;2023-01-16T04:03:12;2.80;1.00
296;DHT22;132;48.770;9.200;2023-01-16T04:06:03;2.70;1.00
296;DHT22;132;48.770;9.200;2023-01-16T04:11:03;2.70;1.00
296;DHT22;132;48.770;9.200;2023-01-16T04:16:01;2.70;1.00
296;DHT22;132;48.770;9.200;2023-01-16T04:18:34;2.70;1.00
296;DHT22;132;48.770;9.200;2023-01-16T04:21:04;1.30;1.00
296;DHT22;132;48.770;9.200;2023-01-16T04:23:31;2.70;1.00
296;DHT22;132;48.770;9.200;2023-01-16T04:25:57;2.70;1.00
296;DHT22;132;48.770;9.200;2023-01-16T04:33:18;2.70;1.00
296;DHT22;132;48.770;9.200;2023-01-16T04:35:44;2.60;1.00
296;DHT22;132;48.770;9.200;2023-01-16T04:38:11;2.70;1.00
296;DHT22;132;48.770;9.200;2023-01-16T04:40:38;2.60;1.00
296;DHT22;132;48.770;9.200;2023-01-16T04:43:05;2.60;1.00
296;DHT22;132;48.770;9.200;2023-01-16T04:45:31;2.50;1.00
296;DHT22;132;48.770;9.200;2023-01-16T04:47:58;2.50;1.00
296;DHT22;132;48.770;9.200;2023-01-16T04:50:24;2.50;1.00
296;DHT22;132;48.770;9.200;2023-01-16T04:52:51;2.60;1.00
296;DHT22;132;48.770;9.200;2023-01-16T04:55:17;2.60;1.00
296;DHT22;132;48.770;9.200;2023-01-16T04:57:43;2.50;1.00
296;DHT22;132;48.770;9.200;2023-01-16T05:00:10;2.80;1.00
296;DHT22;132;48.770;9.200;2023-01-16T05:02:37;2.60;1.00
296;DHT22;132;48.770;9.200;2023-01-16T05:05:04;2.80;1.00
296;DHT22;132;48.770;9.200;2023-01-16T05:07:31;2.70;1.00
296;DHT22;132;48.770;9.200;2023-01-16T05:09:57;2.60;1.00
296;DHT22;132;48.770;9.200;2023-01-16T05:12:24;2.80;1.00
296;DHT22;132;48.770;9.200;2023-01-16T05:14:50;2.70;1.00
296;DHT22;132;48.770;9.200;2023-01-16T05:17:17;2.70;1.00
296;DHT22;132;48.770;9.200;2023-01-16T05:19:44;2.80;1.00
296;DHT22;132;48.770;9.200;2023-01-16T05:22:10;2.80;1.00
296;DHT22;132;48.770;9.200;2023-01-16T05:24:36;3.10;1.00
296;DHT22;132;48.770;9.200;2023-01-16T05:27:03;2.80;1.00
296;DHT22;132;48.770;9.200;2023-01-16T05:29:29;2.80;1.00
296;DHT22;132;48.770;9.200;2023-01-16T05:31:56;2.80;1.00
296;DHT22;132;48.770;9.200;2023-01-16T05:34:22;2.70;1.00
296;DHT22;132;48.770;9.200;2023-01-16T05:39:16;2.80;1.00
296;DHT22;132;48.770;9.200;2023-01-16T05:41:43;2.10;1.00
296;DHT22;132;48.770;9.200;2023-01-16T05:44:09;2.60;1.00
296;DHT22;132;48.770;9.200;2023-01-16T05:49:02;2.60;1.00
296;DHT22;132;48.770;9.200;2023-01-16T05:51:29;2.50;1.00
296;DHT22;132;48.770;9.200;2023-01-16T05:56:22;2.40;1.00
296;DHT22;132;48.770;9.200;2023-01-16T05:58:48;2.50;1.00
296;DHT22;132;48.770;9.200;2023-01-16T06:01:15;2.40;1.00
296;DHT22;132;48.770;9.200;2023-01-16T06:06:08;2.40;1.00
296;DHT22;132;48.770;9.200;2023-01-16T06:08:34;2.50;1.00
296;DHT22;132;48.770;9.200;2023-01-16T06:11:00;2.40;1.00
296;DHT22;132;48.770;9.200;2023-01-16T06:13:27;2.40;1.00
296;DHT22;132;48.770;9.200;2023-01-16T06:15:53;2.60;1.00
296;DHT22;132;48.770;9.200;2023-01-16T06:18:20;2.50;1.00
296;DHT22;132;48.770;9.200;2023-01-16T06:20:46;2.60;1.00
296;DHT22;132;48.770;9.200;2023-01-16T06:23:12;2.60;1.00
296;DHT22;132;48.770;9.200;2023-01-16T06:28:06;2.70;1.00
296;DHT22;132;48.770;9.200;2023-01-16T06:32:59;2.80;1.00
296;DHT22;132;48.770;9.200;2023-01-16T06:35:26;2.60;1.00
296;DHT22;132;48.770;9.200;2023-01-16T06:37:52;2.60;1.00
296;DHT22;132;48.770;9.200;2023-01-16T06:40:18;2.70;1.00
296;DHT22;132;48.770;9.200;2023-01-16T06:42:45;3.80;1.00
296;DHT22;132;48.770;9.200;2023-01-16T06:45:11;2.40;1.00
296;DHT22;132;48.770;9.200;2023-01-16T06:47:38;2.70;1.00
296;DHT22;132;48.770;9.200;2023-01-16T06:50:04;2.60;1.00
296;DHT22;132;48.770;9.200;2023-01-16T06:52:31;2.70;1.00
296;DHT22;132;48.770;9.200;2023-01-16T06:54:58;2.50;1.00
296;DHT22;132;48.770;9.200;2023-01-16T06:57:24;2.70;1.00
296;DHT22;132;48.770;9.200;2023-01-16T06:59:50;3.00;1.00
296;DHT22;132;48.770;9.200;2023-01-16T07:02:17;2.70;1.00
296;DHT22;132;48.770;9.200;2023-01-16T07:07:10;3.00;1.00
296;DHT22;132;48.770;9.200;2023-01-16T07:12:03;2.80;1.00
296;DHT22;132;48.770;9.200;2023-01-16T07:14:30;2.90;1.00
296;DHT22;132;48.770;9.200;2023-01-16T07:17:15;2.90;1.00
296;DHT22;132;48.770;9.200;2023-01-16T07:20:01;3.00;1.00
296;DHT22;132;48.770;9.200;2023-01-16T07:22:45;2.90;1.00
296;DHT22;132;48.770;9.200;2023-01-16T07:25:19;3.20;1.00
296;DHT22;132;48.770;9.200;2023-01-16T07:27:48;2.90;1.00
296;DHT22;132;48.770;9.200;2023-01-16T07:30:17;3.00;1.00
296;DHT22;132;48.770;9.200;2023-01-16T07:32:44;3.00;1.00
296;DHT22;132;48.770;9.200;2023-01-16T07:37:37;2.60;1.00
296;DHT22;132;48.770;9.200;2023-01-16T07:40:05;3.10;1.00
296;DHT22;132;48.770;9.200;2023-01-16T07:42:32;3.30;1.00
296;DHT22;132;48.770;9.200;2023-01-16T07:45:00;3.20;1.00
296;DHT22;132;48.770;9.200;2023-01-16T07:47:26;3.20;1.00
296;DHT22;132;48.770;9.200;2023-01-16T07:52:22;3.30;1.00
296;DHT22;132;48.770;9.200;2023-01-16T07:54:49;3.40;1.00
296;DHT22;132;48.770;9.200;2023-01-16T07:57:15;3.40;1.00
296;DHT22;132;48.770;9.200;2023-01-16T07:59:41;3.40;1.00
296;DHT22;132;48.770;9.200;2023-01-16T08:02:09;3.40;1.00
296;DHT22;132;48.770;9.200;2023-01-16T08:04:36;3.40;1.00
296;DHT22;132;48.770;9.200;2023-01-16T08:07:02;3.60;1.00
296;DHT22;132;48.770;9.200;2023-01-16T08:09:28;3.40;1.00
296;DHT22;132;48.770;9.200;2023-01-16T08:11:55;4.20;1.00
296;DHT22;132;48.770;9.200;2023-01-16T08:14:23;3.60;1.00
296;DHT22;132;48.770;9.200;2023-01-16T08:21:43;3.90;1.00
296;DHT22;132;48.770;9.200;2023-01-16T08:24:10;3.10;1.00
296;DHT22;132;48.770;9.200;2023-01-16T08:26:38;4.00;1.00
296;DHT22;132;48.770;9.200;2023-01-16T08:29:05;3.90;1.00
296;DHT22;132;48.770;9.200;2023-01-16T08:33:58;4.00;1.00
296;DHT22;132;48.770;9.200;2023-01-16T08:36:25;4.40;1.00
296;DHT22;132;48.770;9.200;2023-01-16T08:38:51;4.00;1.00
296;DHT22;132;48.770;9.200;2023-01-16T08:41:18;3.90;1.00
296;DHT22;132;48.770;9.200;2023-01-16T08:44:03;4.20;1.00
296;DHT22;132;48.770;9.200;2023-01-16T08:47:05;4.30;1.00
296;DHT22;132;48.770;9.200;2023-01-16T08:49:52;4.30;1.00
296;DHT22;132;48.770;9.200;2023-01-16T08:52:38;4.50;1.00
296;DHT22;132;48.770;9.200;2023-01-16T08:55:06;4.20;1.00
296;DHT22;132;48.770;9.200;2023-01-16T08:57:32;4.30;1.00
296;DHT22;132;48.770;9.200;2023-01-16T09:00:00;4.30;1.00
296;DHT22;132;48.770;9.200;2023-01-16T09:02:27;5.00;1.00
296;DHT22;132;48.770;9.200;2023-01-16T09:04:54;4.30;1.00
296;DHT22;132;48.770;9.200;2023-01-16T09:07:21;4.40;1.00
296;DHT22;132;48.770;9.200;2023-01-16T09:09:48;3.90;1.00
296;DHT22;132;48.770;9.200;2023-01-16T09:12:14;4.40;1.00
296;DHT22;132;48.770;9.200;2023-01-16T09:14:59;4.40;1.00
296;DHT22;132;48.770;9.200;2023-01-16T09:17:26;4.40;1.00
296;DHT22;132;48.770;9.200;2023-01-16T09:19:54;4.50;1.00
296;DHT22;132;48.770;9.200;2023-01-16T09:22:21;4.50;1.00
296;DHT22;132;48.770;9.200;2023-01-16T09:27:15;4.50;1.00
296;DHT22;132;48.770;9.200;2023-01-16T09:29:45;4.60;1.00
296;DHT22;132;48.770;9.200;2023-01-16T09:32:12;4.70;1.00
296;DHT22;132;48.770;9.200;2023-01-16T09:34:39;4.70;1.00
296;DHT22;132;48.770;9.200;2023-01-16T09:37:08;4.70;1.00
296;DHT22;132;48.770;9.200;2023-01-16T09:45:28;5.00;1.00
296;DHT22;132;48.770;9.200;2023-01-16T09:48:02;5.10;1.00
296;DHT22;132;48.770;9.200;2023-01-16T09:50:38;6.80;1.00
296;DHT22;132;48.770;9.200;2023-01-16T09:55:56;5.40;1.00
296;DHT22;132;48.770;9.200;2023-01-16T10:01:35;5.40;1.00
296;DHT22;132;48.770;9.200;2023-01-16T10:04:18;7.40;1.00
296;DHT22;132;48.770;9.200;2023-01-16T10:09:55;5.80;1.00
296;DHT22;132;48.770;9.200;2023-01-16T10:12:32;5.20;1.00
296;DHT22;132;48.770;9.200;2023-01-16T10:15:27;5.50;1.00
296;DHT22;132;48.770;9.200;2023-01-16T10:24:05;5.50;1.00
296;DHT22;132;48.770;9.200;2023-01-16T10:27:00;5.50;1.00
296;DHT22;132;48.770;9.200;2023-01-16T10:29:47;5.50;1.00
296;DHT22;132;48.770;9.200;2023-01-16T10:32:29;5.60;1.00
296;DHT22;132;48.770;9.200;2023-01-16T10:35:03;5.70;1.00
296;DHT22;132;48.770;9.200;2023-01-16T10:37:32;5.70;1.00
296;DHT22;132;48.770;9.200;2023-01-16T10:40:09;5.50;1.00
296;DHT22;132;48.770;9.200;2023-01-16T10:42:37;6.70;1.00
296;DHT22;132;48.770;9.200;2023-01-16T10:45:26;5.60;1.00
296;DHT22;132;48.770;9.200;2023-01-16T10:48:15;5.70;1.00
296;DHT22;132;48.770;9.200;2023-01-16T10:51:01;6.40;1.00
296;DHT22;132;48.770;9.200;2023-01-16T10:53:28;5.70;1.00
296;DHT22;132;48.770;9.200;2023-01-16T10:55:55;5.90;1.00
296;DHT22;132;48.770;9.200;2023-01-16T10:58:35;5.90;1.00
296;DHT22;132;48.770;9.200;2023-01-16T11:01:11;5.90;1.00
296;DHT22;132;48.770;9.200;2023-01-16T11:03:39;6.00;1.00
296;DHT22;132;48.770;9.200;2023-01-16T11:06:14;5.90;1.00
296;DHT22;132;48.770;9.200;2023-01-16T11:08:42;5.90;1.00
296;DHT22;132;48.770;9.200;2023-01-16T11:11:13;5.90;1.00
296;DHT22;132;48.770;9.200;2023-01-16T11:14:00;6.10;1.00
296;DHT22;132;48.770;9.200;2023-01-16T11:16:47;7.40;1.00
296;DHT22;132;48.770;9.200;2023-01-16T11:19:41;6.30;1.00
296;DHT22;132;48.770;9.200;2023-01-16T11:22:24;6.20;1.00
296;DHT22;132;48.770;9.200;2023-01-16T11:24:57;6.20;1.00
296;DHT22;132;48.770;9.200;2023-01-16T11:27:30;6.10;1.00
296;DHT22;132;48.770;9.200;2023-01-16T11:29:57;6.10;1.00
296;DHT22;132;48.770;9.200;2023-01-16T11:32:25;6.10;1.00
296;DHT22;132;48.770;9.200;2023-01-16T11:34:56;6.20;1.00
296;DHT22;132;48.770;9.200;2023-01-16T11:37:27;7.00;1.00
296;DHT22;132;48.770;9.200;2023-01-16T11:39:57;5.70;1.00
296;DHT22;132;48.770;9.200;2023-01-16T11:42:24;6.30;1.00
296;DHT22;132;48.770;9.200;2023-01-16T11:45:22;6.10;1.00
296;DHT22;132;48.770;9.200;2023-01-16T11:48:08;6.40;1.00
296;DHT22;132;48.770;9.200;2023-01-16T11:50:55;6.50;1.00
296;DHT22;132;48.770;9.200;2023-01-16T12:01:15;6.40;1.00
296;DHT22;132;48.770;9.200;2023-01-16T12:03:48;6.50;1.00
296;DHT22;132;48.770;9.200;2023-01-16T12:06:49;6.70;1.00
296;DHT22;132;48.770;9.200;2023-01-16T12:14:59;6.80;1.00
296;DHT22;132;48.770;9.200;2023-01-16T12:17:31;6.80;1.00
296;DHT22;132;48.770;9.200;2023-01-16T12:20:18;6.70;1.00
296;DHT22;132;48.770;9.200;2023-01-16T12:51:00;7.20;1.00
296;DHT22;132;48.770;9.200;2023-01-16T12:53:59;7.30;1.00
296;DHT22;132;48.770;9.200;2023-01-16T12:56:59;7.50;1.00
296;DHT22;132;48.770;9.200;2023-01-16T12:59:40;7.10;1.00
296;DHT22;132;48.770;9.200;2023-01-16T13:08:36;7.50;1.00
296;DHT22;132;48.770;9.200;2023-01-16T13:11:07;7.40;1.00
296;DHT22;132;48.770;9.200;2023-01-16T13:14:13;7.50;1.00
296;DHT22;132;48.770;9.200;2023-01-16T13:16:47;7.60;1.00
296;DHT22;132;48.770;9.200;2023-01-16T13:19:17;7.50;1.00
296;DHT22;132;48.770;9.200;2023-01-16T13:21:59;7.60;1.00
296;DHT22;132;48.770;9.200;2023-01-16T13:24:33;7.90;1.00
296;DHT22;132;48.770;9.200;2023-01-16T13:29:47;7.70;1.00
296;DHT22;132;48.770;9.200;2023-01-16T13:32:27;9.20;1.00
296;DHT22;132;48.770;9.200;2023-01-16T13:35:26;7.70;1.00
296;DHT22;132;48.770;9.200;2023-01-16T13:41:02;7.80;1.00
296;DHT22;132;48.770;9.200;2023-01-16T13:43:42;7.70;1.00
296;DHT22;132;48.770;9.200;2023-01-16T13:46:29;7.80;1.00
296;DHT22;132;48.770;9.200;2023-01-16T13:49:00;7.80;1.00
296;DHT22;132;48.770;9.200;2023-01-16T13:51:27;8.00;1.00
296;DHT22;132;48.770;9.200;2023-01-16T13:54:01;7.60;1.00
296;DHT22;132;48.770;9.200;2023-01-16T13:56:31;7.80;1.00
296;DHT22;132;48.770;9.200;2023-01-16T14:06:47;7.50;1.00
296;DHT22;132;48.770;9.200;2023-01-16T14:20:42;7.50;1.00
296;DHT22;132;48.770;9.200;2023-01-16T14:23:23;7.50;1.00
296;DHT22;132;48.770;9.200;2023-01-16T14:27:01;7.40;1.00
296;DHT22;132;48.770;9.200;2023-01-16T14:34:32;7.30;1.00
296;DHT22;132;48.770;9.200;2023-01-16T14:37:03;7.10;1.00
296;DHT22;132;48.770;9.200;2023-01-16T14:39:33;6.80;1.00
296;DHT22;132;48.770;9.200;2023-01-16T14:42:06;8.30;1.00
296;DHT22;132;48.770;9.200;2023-01-16T14:45:04;6.70;1.00
296;DHT22;132;48.770;9.200;2023-01-16T14:51:01;6.50;1.00
296;DHT22;132;48.770;9.200;2023-01-16T14:56:40;7.60;1.00
296;DHT22;132;48.770;9.200;2023-01-16T14:59:16;6.40;1.00
296;DHT22;132;48.770;9.200;2023-01-16T15:01:50;6.40;1.00
296;DHT22;132;48.770;9.200;2023-01-16T15:10:18;6.30;1.00
296;DHT22;132;48.770;9.200;2023-01-16T15:15:25;6.20;1.00
296;DHT22;132;48.770;9.200;2023-01-16T15:17:55;6.40;1.00
296;DHT22;132;48.770;9.200;2023-01-16T15:20:43;6.20;1.00
296;DHT22;132;48.770;9.200;2023-01-16T15:23:39;6.10;1.00
296;DHT22;132;48.770;9.200;2023-01-16T15:26:08;6.10;1.00
296;DHT22;132;48.770;9.200;2023-01-16T15:31:34;5.90;1.00
296;DHT22;132;48.770;9.200;2023-01-16T15:34:18;6.30;1.00
296;DHT22;132;48.770;9.200;2023-01-16T15:36:47;6.30;1.00
296;DHT22;132;48.770;9.200;2023-01-16T15:39:24;6.40;1.00
296;DHT22;132;48.770;9.200;2023-01-16T15:45:00;6.60;1.00
296;DHT22;132;48.770;9.200;2023-01-16T15:55:47;6.20;1.00
296;DHT22;132;48.770;9.200;2023-01-16T15:58:17;6.90;1.00
296;DHT22;132;48.770;9.200;2023-01-16T16:00:44;6.20;1.00
296;DHT22;132;48.770;9.200;2023-01-16T16:03:12;5.90;1.00
296;DHT22;132;48.770;9.200;2023-01-16T16:05:43;5.90;1.00
296;DHT22;132;48.770;9.200;2023-01-16T16:08:18;5.50;1.00
296;DHT22;132;48.770;9.200;2023-01-16T16:10:46;5.60;1.00
296;DHT22;132;48.770;9.200;2023-01-16T16:13:31;5.60;1.00
296;DHT22;132;48.770;9.200;2023-01-16T16:16:03;5.70;1.00
296;DHT22;132;48.770;9.200;2023-01-16T16:18:56;5.90;1.00
296;DHT22;132;48.770;9.200;2023-01-16T16:21:29;5.90;1.00
296;DHT22;132;48.770;9.200;2023-01-16T16:24:06;5.60;1.00
296;DHT22;132;48.770;9.200;2023-01-16T16:26:41;5.60;1.00
296;DHT22;132;48.770;9.200;2023-01-16T16:29:18;5.70;1.00
296;DHT22;132;48.770;9.200;2023-01-16T16:31:46;5.50;1.00
296;DHT22;132;48.770;9.200;2023-01-16T16:34:23;5.50;1.00
296;DHT22;132;48.770;9.200;2023-01-16T16:52:49;5.20;1.00
296;DHT22;132;48.770;9.200;2023-01-16T16:57:52;5.00;1.00
296;DHT22;132;48.770;9.200;2023-01-16T17:00:19;4.80;1.00
296;DHT22;132;48.770;9.200;2023-01-16T17:02:48;4.70;1.00
296;DHT22;132;48.770;9.200;2023-01-16T17:05:17;7.20;1.00
296;DHT22;132;48.770;9.200;2023-01-16T17:07:47;4.80;1.00
296;DHT22;132;48.770;9.200;2023-01-16T17:10:16;4.90;1.00
296;DHT22;132;48.770;9.200;2023-01-16T17:12:43;4.70;1.00
296;DHT22;132;48.770;9.200;2023-01-16T17:15:10;4.50;1.00
296;DHT22;132;48.770;9.200;2023-01-16T17:17:41;4.60;1.00
296;DHT22;132;48.770;9.200;2023-01-16T17:22:39;4.60;1.00
296;DHT22;132;48.770;9.200;2023-01-16T17:27:44;4.60;1.00
296;DHT22;132;48.770;9.200;2023-01-16T17:30:12;4.60;1.00
296;DHT22;132;48.770;9.200;2023-01-16T17:32:39;4.70;1.00
296;DHT22;132;48.770;9.200;2023-01-16T17:37:41;4.60;1.00
296;DHT22;132;48.770;9.200;2023-01-16T17:40:09;5.00;1.00
296;DHT22;132;48.770;9.200;2023-01-16T17:42:36;4.60;1.00
296;DHT22;132;48.770;9.200;2023-01-16T17:45:42;4.60;1.00
296;DHT22;132;48.770;9.200;2023-01-16T17:48:29;4.60;1.00
296;DHT22;132;48.770;9.200;2023-01-16T17:50:57;4.60;1.00
296;DHT22;132;48.770;9.200;2023-01-16T17:53:27;4.50;1.00
296;DHT22;132;48.770;9.200;2023-01-16T17:55:55;4.60;1.00
296;DHT22;132;48.770;9.200;2023-01-16T17:58:30;4.50;1.00
296;DHT22;132;48.770;9.200;2023-01-16T18:01:27;4.60;1.00
296;DHT22;132;48.770;9.200;2023-01-16T18:06:37;4.40;1.00
296;DHT22;132;48.770;9.200;2023-01-16T18:09:05;4.40;1.00
296;DHT22;132;48.770;9.200;2023-01-16T18:11:34;4.50;1.00
296;DHT22;132;48.770;9.200;2023-01-16T18:14:19;4.40;1.00
296;DHT22;132;48.770;9.200;2023-01-16T18:19:51;4.70;1.00
296;DHT22;132;48.770;9.200;2023-01-16T18:22:18;4.40;1.00
296;DHT22;132;48.770;9.200;2023-01-16T18:24:44;4.50;1.00
296;DHT22;132;48.770;9.200;2023-01-16T18:27:14;4.40;1.00
296;DHT22;132;48.770;9.200;2023-01-16T18:29:41;4.30;1.00
296;DHT22;132;48.770;9.200;2023-01-16T18:32:09;5.60;1.00
296;DHT22;132;48.770;9.200;2023-01-16T18:34:58;4.50;1.00
296;DHT22;132;48.770;9.200;2023-01-16T18:37:43;4.40;1.00
296;DHT22;132;48.770;9.200;2023-01-16T18:40:33;4.40;1.00
296;DHT22;132;48.770;9.200;2023-01-16T18:43:18;6.40;1.00
296;DHT22;132;48.770;9.200;2023-01-16T18:46:03;4.40;1.00
296;DHT22;132;48.770;9.200;2023-01-16T18:48:47;4.50;1.00
296;DHT22;132;48.770;9.200;2023-01-16T18:51:33;4.30;1.00
296;DHT22;132;48.770;9.200;2023-01-16T18:54:20;4.30;1.00
296;DHT22;132;48.770;9.200;2023-01-16T18:57:14;4.20;1.00
296;DHT22;132;48.770;9.200;2023-01-16T19:00:00;4.40;1.00
296;DHT22;132;48.770;9.200;2023-01-16T19:02:50;4.40;1.00
296;DHT22;132;48.770;9.200;2023-01-16T19:05:20;4.50;1.00
296;DHT22;132;48.770;9.200;2023-01-16T19:07:52;4.40;1.00
296;DHT22;132;48.770;9.200;2023-01-16T19:10:29;4.50;1.00
296;DHT22;132;48.770;9.200;2023-01-16T19:12:58;4.40;1.00
296;DHT22;132;48.770;9.200;2023-01-16T19:15:25;4.40;1.00
296;DHT22;132;48.770;9.200;2023-01-16T19:17:52;4.30;1.00
296;DHT22;132;48.770;9.200;2023-01-16T19:20:21;4.30;1.00
296;DHT22;132;48.770;9.200;2023-01-16T19:22:49;4.60;1.00
296;DHT22;132;48.770;9.200;2023-01-16T19:27:42;4.20;1.00
296;DHT22;132;48.770;9.200;2023-01-16T19:32:36;4.20;1.00
296;DHT22;132;48.770;9.200;2023-01-16T19:35:02;4.10;1.00
296;DHT22;132;48.770;9.200;2023-01-16T19:37:29;4.10;1.00
296;DHT22;132;48.770;9.200;2023-01-16T19:39:55;4.10;1.00
296;DHT22;132;48.770;9.200;2023-01-16T19:42:25;4.00;1.00
296;DHT22;132;48.770;9.200;2023-01-16T19:47:55;4.00;1.00
296;DHT22;132;48.770;9.200;2023-01-16T19:50:22;4.10;1.00
296;DHT22;132;48.770;9.200;2023-01-16T19:52:48;3.90;1.00
296;DHT22;132;48.770;9.200;2023-01-16T19:55:15;3.80;1.00
296;DHT22;132;48.770;9.200;2023-01-16T19:57:44;4.00;1.00
296;DHT22;132;48.770;9.200;2023-01-16T20:00:11;3.90;1.00
296;DHT22;132;48.770;9.200;2023-01-16T20:02:41;3.80;1.00
296;DHT22;132;48.770;9.200;2023-01-16T20:05:08;2.10;1.00
296;DHT22;132;48.770;9.200;2023-01-16T20:07:34;3.90;1.00
296;DHT22;132;48.770;9.200;2023-01-16T20:10:00;4.00;1.00
296;DHT22;132;48.770;9.200;2023-01-16T20:12:27;3.90;1.00
296;DHT22;132;48.770;9.200;2023-01-16T20:14:55;4.00;1.00
296;DHT22;132;48.770;9.200;2023-01-16T20:17:22;3.70;1.00
296;DHT22;132;48.770;9.200;2023-01-16T20:19:49;3.90;1.00
296;DHT22;132;48.770;9.200;2023-01-16T20:22:26;3.90;1.00
296;DHT22;132;48.770;9.200;2023-01-16T20:24:52;4.00;1.00
296;DHT22;132;48.770;9.200;2023-01-16T20:27:19;3.90;1.00
296;DHT22;132;48.770;9.200;2023-01-16T20:29:46;3.90;1.00
296;DHT22;132;48.770;9.200;2023-01-16T20:32:14;3.90;1.00
296;DHT22;132;48.770;9.200;2023-01-16T20:34:42;4.00;1.00
296;DHT22;132;48.770;9.200;2023-01-16T20:37:09;4.00;1.00
296;DHT22;132;48.770;9.200;2023-01-16T20:42:04;4.00;1.00
296;DHT22;132;48.770;9.200;2023-01-16T20:44:49;4.00;1.00
296;DHT22;132;48.770;9.200;2023-01-16T20:50:00;4.00;1.00
296;DHT22;132;48.770;9.200;2023-01-16T20:54:57;4.20;1.00
296;DHT22;132;48.770;9.200;2023-01-16T20:59:52;4.30;1.00
296;DHT22;132;48.770;9.200;2023-01-16T21:02:18;4.00;1.00
296;DHT22;132;48.770;9.200;2023-01-16T21:04:45;4.00;1.00
296;DHT22;132;48.770;9.200;2023-01-16T21:07:20;4.00;1.00
296;DHT22;132;48.770;9.200;2023-01-16T21:09:46;4.10;1.00
296;DHT22;132;48.770;9.200;2023-01-16T21:12:13;4.10;1.00
296;DHT22;132;48.770;9.200;2023-01-16T21:14:58;4.20;1.00
296;DHT22;132;48.770;9.200;2023-01-16T21:17:25;4.40;1.00
296;DHT22;132;48.770;9.200;2023-01-16T21:20:10;5.10;1.00
296;DHT22;132;48.770;9.200;2023-01-16T21:22:55;3.70;1.00
296;DHT22;132;48.770;9.200;2023-01-16T21:25:21;4.40;1.00
296;DHT22;132;48.770;9.200;2023-01-16T21:27:49;4.40;1.00
296;DHT22;132;48.770;9.200;2023-01-16T21:30:19;4.40;1.00
296;DHT22;132;48.770;9.200;2023-01-16T21:32:47;4.30;1.00
296;DHT22;132;48.770;9.200;2023-01-16T21:35:14;4.30;1.00
296;DHT22;132;48.770;9.200;2023-01-16T21:37:41;3.60;1.00
296;DHT22;132;48.770;9.200;2023-01-16T21:40:11;4.10;1.00
296;DHT22;132;48.770;9.200;2023-01-16T21:45:23;4.20;1.00
296;DHT22;132;48.770;9.200;2023-01-16T21:48:12;5.20;1.00
296;DHT22;132;48.770;9.200;2023-01-16T21:50:39;4.40;1.00
296;DHT22;132;48.770;9.200;2023-01-16T21:53:13;3.70;1.00
296;DHT22;132;48.770;9.200;2023-01-16T21:55:40;4.20;1.00
296;DHT22;132;48.770;9.200;2023-01-16T21:58:07;4.30;1.00
296;DHT22;132;48.770;9.200;2023-01-16T22:00:34;4.10;1.00
296;DHT22;132;48.770;9.200;2023-01-16T22:03:03;4.20;1.00
296;DHT22;132;48.770;9.200;2023-01-16T22:05:30;4.30;1.00
296;DHT22;132;48.770;9.200;2023-01-16T22:07:57;4.20;1.00
296;DHT22;132;48.770;9.200;2023-01-16T22:12:50;4.40;1.00
296;DHT22;132;48.770;9.200;2023-01-16T22:15:37;4.30;1.00
296;DHT22;132;48.770;9.200;2023-01-16T22:18:23;4.30;1.00
296;DHT22;132;48.770;9.200;2023-01-16T22:20:52;4.40;1.00
296;DHT22;132;48.770;9.200;2023-01-16T22:23:23;6.40;1.00